x

Isle Of Shoals, Nh (iosn3) Weather Station

10:00 - Sun 1st Mar 2015 All times are EST. -5 hours from GMT.

  • Wind
    1mph, 2mph gusts
  • Luft Temp 21°f
  • Sea Pressure 1036.3mb
  • Isle Of Shoals, Nh
  • Isle Of Shoals, Nh

More Historic Weather Station data

Upgrade to MSW Pro to gain access to the past 30 days of data for over 8000 Wavebouys and Weather Stations around the globe.

Join Pro

Comparision Forecast

View Surf forecast
   
So 03/01 10:00 1 2 mph 1036.3mb 21f
9:00 2 3 mph 1037.1mb 20f
8:00 7 8 mph 1038.1mb 20f
7:00 8 9 mph 1037.5mb 20f
6:00 9 10 mph 1037.3mb 20f
5:00 8 10 mph 1037.7mb 22f
4:00 8 9 mph 1037.8mb 21f
3:00 10 11 mph 1037.9mb 22f
2:00 13 14 mph 1038.1mb 23f
1:00 17 18 mph 1038.3mb 24f
12:00 18 20 mph 1037.9mb 26f
Sa 02/28 11:00 13 14 mph 1038.2mb 27f
10:00 13 14 mph 1038.4mb 28f
9:00 15 16 mph 1038.3mb 28f
8:00 16 18 mph 1038mb 30f
7:00 13 15 mph 1037.9mb 30f
6:00 14 15 mph 1037.6mb 29f
5:00 14 15 mph 1037.4mb 29f
4:00 13 14 mph 1037.5mb 28f
3:00 10 14 mph 1037.5mb 27f
2:00 8 9 mph 1038.1mb 24f
1:00 7 8 mph 1038.7mb 22f
12:00 6 7 mph 1039.6mb 21f
11:00 6 7 mph 1039.9mb 20f
10:00 11 14 mph 1039.7mb 18f
9:00 14 16 mph 1039.3mb 16f
8:00 18 21 mph 1038.7mb 15f
7:00 15 16 mph 1038.1mb 14f
6:00 15 18 mph 1037mb 14f
5:00 15 18 mph 1036.3mb 15f
4:00 18 22 mph 1035mb 16f
3:00 18 21 mph 1034.3mb 17f
2:00 20 23 mph 1034mb 18f
1:00 17 18 mph 1033.5mb 19f
12:00 16 18 mph 1032.6mb 21f
Fr 02/27 11:00 17 18 mph 1032mb 21f
10:00 16 17 mph 1031.5mb 22f
9:00 21 23 mph 1030.6mb 23f
8:00 20 22 mph 1029.8mb 24f
7:00 18 21 mph 1029.2mb 24f
6:00 17 20 mph 1028.2mb 25f
5:00 14 16 mph 1027.2mb 25f
4:00 8 10 mph 1026.9mb 24f
3:00 10 11 mph 1026.4mb 22f
2:00 8 9 mph 1026.3mb 20f
1:00  -  2 mph 1026.4mb 20f
12:00 1 2 mph 1026.7mb 18f
11:00 8 10 mph 1026.8mb 16f
10:00 11 13 mph 1026.5mb 16f
9:00 10 11 mph 1026.4mb 15f
8:00 16 20 mph 1025.6mb 14f
7:00 17 20 mph 1024.4mb 15f
6:00 17 20 mph 1023.4mb 15f
5:00 17 18 mph 1022.4mb 16f
4:00 18 21 mph 1021.2mb 17f
3:00 15 17 mph 1020.5mb 18f
2:00 14 16 mph 1019.9mb 19f
1:00 9 10 mph 1019.5mb 21f
12:00 8 10 mph 1018.9mb 21f
Do 02/26 11:00 9 10 mph 1018.8mb 21f
10:00 10 13 mph 1018.4mb 21f
9:00 10 11 mph 1017.4mb 21f
8:00 11 14 mph 1016.7mb 22f
7:00 13 15 mph 1016mb 21f
6:00 13 14 mph 1015.6mb 21f
5:00 14 15 mph 1015.3mb 20f
4:00 14 16 mph 1014.7mb 19f
3:00 16 18 mph 1014.6mb 19f
2:00 17 21 mph 1014.8mb 18f
1:00 20 23 mph 1016mb 18f
12:00 24 28 mph 1016.5mb 18f
11:00 18 22 mph 1017.3mb 19f
10:00 18 20 mph 1017.7mb 20f
9:00 13 15 mph 1018.5mb 19f
8:00 14 16 mph 1018.4mb 19f
7:00 11 15 mph 1017.7mb 18f
6:00 13 15 mph 1017.3mb 18f
5:00 17 20 mph 1016.9mb 19f
4:00 10 13 mph 1017.2mb 19f
3:00 16 20 mph 1016.3mb 20f
2:00 23 25 mph 1015.6mb 21f
1:00 21 23 mph 1015.2mb 22f
12:00 22 24 mph 1014.2mb 24f
Mi 02/25 11:00 23 26 mph 1013.8mb 25f
10:00 23 26 mph 1013.6mb 27f
9:00 20 21 mph 1011.9mb 28f
8:00 22 25 mph 1010.1mb 29f
7:00 20 22 mph 1009.2mb 31f
6:00 21 23 mph 1008.3mb 32f
5:00 31 34 mph 1006.3mb 33f